Time;durP1;ratioP1;P1;durP2;ratioP2;P2;SDS_P1;SDS_P2;PMS_P1;PMS_P2;Temp;Humidity;BMP_temperature;BMP_pressure;BME280_temperature;BME280_humidity;BME280_pressure;Samples;Min_cycle;Max_cycle;Signal;HPM_P1;HPM_P2
2023/10/17 00:01:00;;;;;;;4.82;2.22;;;6.70;99.90;;;;;;5116784;27;20346;-87
2023/10/17 00:03:26;;;;;;;4.50;1.80;;;6.80;99.90;;;;;;5124915;27;20024;-87
2023/10/17 00:05:56;;;;;;;2.45;1.60;;;6.80;99.90;;;;;;5118673;27;21499;-87
2023/10/17 00:08:22;;;;;;;3.80;1.70;;;6.80;99.90;;;;;;5127864;27;20505;-87
2023/10/17 00:10:49;;;;;;;3.95;1.80;;;6.80;99.90;;;;;;5136253;27;20106;-89
2023/10/17 00:15:49;;;;;;;2.47;2.10;;;6.70;99.90;;;;;;5134353;27;20020;-87
2023/10/17 00:18:25;;;;;;;2.78;1.73;;;6.70;99.90;;;;;;5135018;27;20033;-87
2023/10/17 00:20:54;;;;;;;;;;;6.70;99.90;;;;;;5107198;27;20395;-88
2023/10/17 00:23:20;;;;;;;4.47;1.70;;;6.60;99.90;;;;;;5126341;27;20367;-87
2023/10/17 00:25:51;;;;;;;4.05;1.83;;;6.60;99.90;;;;;;5122489;27;20043;-87
2023/10/17 00:28:20;;;;;;;3.38;1.70;;;6.60;99.90;;;;;;5108872;27;20386;-87
2023/10/17 00:30:50;;;;;;;3.25;1.73;;;6.60;99.90;;;;;;5121841;27;20067;-87
2023/10/17 00:33:20;;;;;;;3.42;1.67;;;6.60;99.90;;;;;;5125343;27;20049;-87
2023/10/17 00:35:49;;;;;;;2.08;1.40;;;6.50;99.90;;;;;;5118856;27;20480;-87
2023/10/17 00:38:15;;;;;;;2.15;1.80;;;6.50;99.90;;;;;;5126578;27;20022;-87
2023/10/17 00:40:51;;;;;;;1.98;1.70;;;6.50;99.90;;;;;;5126297;27;20401;-87
2023/10/17 00:43:19;;;;;;;4.15;2.03;;;6.50;99.90;;;;;;5128479;27;20051;-87
2023/10/17 00:45:48;;;;;;;5.18;2.45;;;6.40;99.90;;;;;;5110267;27;20077;-87
2023/10/17 00:48:18;;;;;;;4.05;2.65;;;6.40;99.90;;;;;;5122430;27;20471;-87
2023/10/17 00:50:48;;;;;;;3.22;2.63;;;6.40;99.90;;;;;;5121892;27;20031;-88
2023/10/17 00:53:14;;;;;;;3.25;2.20;;;6.30;99.90;;;;;;5128862;27;20034;-88
2023/10/17 00:55:50;;;;;;;5.85;2.85;;;6.30;99.90;;;;;;5127974;27;20019;-87
2023/10/17 00:58:18;;;;;;;;;;;6.30;99.90;;;;;;5117092;27;20042;-87
2023/10/17 01:00:54;;;;;;;4.10;2.53;;;6.30;99.90;;;;;;5124327;27;19930;-87
2023/10/17 01:03:21;;;;;;;4.47;2.80;;;6.30;99.90;;;;;;5120779;27;20060;-88
2023/10/17 01:08:44;;;;;;;4.65;2.45;;;6.30;99.90;;;;;;5133245;27;20049;-89
2023/10/17 01:11:15;;;;;;;5.35;2.80;;;6.30;99.90;;;;;;5126650;27;20360;-87
2023/10/17 01:13:44;;;;;;;13.95;4.35;;;6.30;99.90;;;;;;5124208;27;20099;-87
2023/10/17 01:16:12;;;;;;;7.93;3.35;;;6.30;99.90;;;;;;5124363;27;20049;-86
2023/10/17 01:18:38;;;;;;;3.05;2.75;;;6.30;99.90;;;;;;5127118;27;20107;-89
2023/10/17 01:21:04;;;;;;;5.63;2.72;;;6.30;99.90;;;;;;5112490;27;20069;-87
2023/10/17 01:23:31;;;;;;;7.18;3.33;;;6.30;99.90;;;;;;5114264;27;20526;-86
2023/10/17 01:26:05;;;;;;;8.07;3.75;;;6.30;99.90;;;;;;5121663;27;20034;-86
2023/10/17 01:28:30;;;;;;;10.40;3.63;;;6.30;99.90;;;;;;5112184;27;20110;-87
2023/10/17 01:30:58;;;;;;;4.38;3.17;;;6.30;99.90;;;;;;5132694;27;20168;-87
2023/10/17 01:33:29;;;;;;;5.53;3.22;;;6.30;99.90;;;;;;5127517;27;20055;-88
2023/10/17 01:36:09;;;;;;;5.60;2.78;;;6.20;99.90;;;;;;5119166;27;20023;-88
2023/10/17 01:38:35;;;;;;;4.13;2.90;;;6.30;99.90;;;;;;5115378;27;20023;-87
2023/10/17 01:41:01;;;;;;;4.07;3.03;;;6.20;99.90;;;;;;5102633;27;20164;-87
2023/10/17 01:43:30;;;;;;;5.43;2.97;;;6.20;99.90;;;;;;5120690;27;20454;-90
2023/10/17 01:45:57;;;;;;;4.97;2.97;;;6.20;99.90;;;;;;5121120;27;20040;-86
2023/10/17 01:48:24;;;;;;;6.75;3.53;;;6.20;99.90;;;;;;5122223;27;20038;-87
2023/10/17 01:50:50;;;;;;;4.22;2.72;;;6.10;99.90;;;;;;5117632;27;20023;-87
2023/10/17 01:53:16;;;;;;;6.13;3.10;;;6.10;99.90;;;;;;5121518;27;20034;-87
2023/10/17 01:55:48;;;;;;;4.70;2.80;;;6.10;99.90;;;;;;5132369;27;20094;-87
2023/10/17 01:58:15;;;;;;;7.90;3.40;;;6.00;99.90;;;;;;5133429;27;20466;-86
2023/10/17 02:00:42;;;;;;;7.97;3.58;;;6.00;99.90;;;;;;5122348;27;20077;-86
2023/10/17 02:03:12;;;;;;;4.95;2.90;;;6.00;99.90;;;;;;5127477;27;20932;-87
2023/10/17 02:05:38;;;;;;;4.05;2.97;;;6.00;99.90;;;;;;5127562;27;20043;-86
2023/10/17 02:08:05;;;;;;;5.30;3.00;;;6.00;99.90;;;;;;5121600;27;20419;-87
2023/10/17 02:10:31;;;;;;;6.22;3.67;;;6.00;99.90;;;;;;5129130;27;20379;-87
2023/10/17 02:12:57;;;;;;;6.45;3.20;;;5.90;99.90;;;;;;5122043;27;20031;-86
2023/10/17 02:15:26;;;;;;;7.80;3.20;;;5.90;99.90;;;;;;5125617;27;20030;-86
2023/10/17 02:17:53;;;;;;;4.13;2.85;;;5.90;99.90;;;;;;5127481;27;20041;-87
2023/10/17 02:20:52;;;;;;;6.15;3.78;;;5.90;99.90;;;;;;5121099;27;20031;-86
2023/10/17 02:23:25;;;;;;;7.68;3.53;;;5.90;99.90;;;;;;5119583;27;20083;-87
2023/10/17 02:25:52;;;;;;;6.03;3.22;;;5.90;99.90;;;;;;5118623;27;20036;-86
2023/10/17 02:28:17;;;;;;;13.25;4.30;;;5.90;99.90;;;;;;5133173;27;20423;-87
2023/10/17 02:30:46;;;;;;;7.32;3.30;;;5.90;99.90;;;;;;5127964;27;20026;-87
2023/10/17 02:33:17;;;;;;;6.53;3.92;;;6.00;99.90;;;;;;5119018;27;20043;-86
2023/10/17 02:36:04;;;;;;;3.53;2.80;;;6.00;99.90;;;;;;5117215;27;20781;-87
2023/10/17 02:38:30;;;;;;;6.00;3.00;;;6.10;99.90;;;;;;5128729;27;20026;-87
2023/10/17 02:40:56;;;;;;;13.93;3.63;;;6.20;99.90;;;;;;5129231;27;20511;-87
2023/10/17 02:43:21;;;;;;;5.38;3.58;;;6.20;99.90;;;;;;5129682;27;20038;-87
2023/10/17 02:45:47;;;;;;;3.63;3.00;;;6.30;99.90;;;;;;5129209;27;20132;-86
2023/10/17 02:48:26;;;;;;;9.18;3.30;;;6.30;99.90;;;;;;5127100;27;20031;-87
2023/10/17 02:50:59;;;;;;;4.35;2.65;;;6.40;99.90;;;;;;5112964;27;20395;-87
2023/10/17 02:53:34;;;;;;;3.70;3.05;;;6.40;99.90;;;;;;5117699;27;20024;-89
2023/10/17 02:56:18;;;;;;;4.40;3.28;;;6.40;99.90;;;;;;5129270;27;20047;-87
2023/10/17 02:59:12;;;;;;;5.65;3.22;;;6.50;99.90;;;;;;5126601;27;20030;-86
2023/10/17 03:01:40;;;;;;;3.60;2.40;;;6.60;99.90;;;;;;5120014;27;20297;-86
2023/10/17 03:04:09;;;;;;;4.28;3.22;;;6.60;99.90;;;;;;5129909;27;20419;-87
2023/10/17 03:06:40;;;;;;;4.00;3.10;;;6.60;99.90;;;;;;5130218;27;20395;-87
2023/10/17 03:17:05;;;;;;;5.70;3.80;;;6.80;99.90;;;;;;5128063;27;20037;-87
2023/10/17 03:19:33;;;;;;;5.97;3.45;;;6.80;99.90;;;;;;5123534;27;20023;-87
2023/10/17 03:24:59;;;;;;;5.65;3.58;;;6.80;99.90;;;;;;5121386;27;20084;-87
2023/10/17 03:27:48;;;;;;;3.63;3.25;;;6.80;99.90;;;;;;5119560;27;20482;-87
2023/10/17 03:30:15;;;;;;;4.95;2.70;;;6.80;99.90;;;;;;5123110;27;20028;-86
2023/10/17 03:32:54;;;;;;;5.07;2.85;;;6.70;99.90;;;;;;5118598;27;20056;-86
2023/10/17 03:35:21;;;;;;;5.18;3.15;;;6.70;99.90;;;;;;5120460;27;20147;-86
2023/10/17 03:37:49;;;;;;;3.95;2.78;;;6.70;99.90;;;;;;5120371;27;20031;-88
2023/10/17 03:40:16;;;;;;;4.38;3.10;;;6.70;99.90;;;;;;5125146;27;20109;-87
2023/10/17 03:42:55;;;;;;;3.58;2.92;;;6.70;99.90;;;;;;5120167;27;20037;-87
2023/10/17 03:47:53;;;;;;;10.18;4.72;;;6.60;99.90;;;;;;5125982;27;20027;-87
2023/10/17 03:50:37;;;;;;;8.90;4.85;;;6.60;99.90;;;;;;5096150;27;20150;-86
2023/10/17 03:53:15;;;;;;;8.52;5.53;;;6.50;99.90;;;;;;5124104;27;20023;-89
2023/10/17 03:55:44;;;;;;;9.93;5.45;;;6.50;99.90;;;;;;5116354;27;20041;-87
2023/10/17 03:58:48;;;;;;;15.73;6.88;;;6.40;99.90;;;;;;5121826;27;20019;-88
2023/10/17 04:01:06;;;;;;;11.88;6.75;;;6.40;99.90;;;;;;5124116;27;20036;-87
2023/10/17 04:03:35;;;;;;;11.55;6.03;;;6.40;99.90;;;;;;5123229;27;20050;-88
2023/10/17 04:08:48;;;;;;;10.93;6.97;;;6.30;99.90;;;;;;5121626;27;20488;-86
2023/10/17 04:11:17;;;;;;;12.43;7.45;;;6.20;99.90;;;;;;5114952;27;20031;-86
2023/10/17 04:13:52;;;;;;;13.63;7.03;;;6.20;99.90;;;;;;5120765;27;20035;-86
2023/10/17 04:16:34;;;;;;;10.68;5.97;;;6.10;99.90;;;;;;5118685;27;20030;-87
2023/10/17 04:19:01;;;;;;;8.98;5.78;;;6.10;99.90;;;;;;5124707;27;20114;-86
2023/10/17 04:21:37;;;;;;;9.18;5.85;;;6.10;99.90;;;;;;5119052;27;20603;-87
2023/10/17 04:24:06;;;;;;;7.63;5.38;;;6.00;99.90;;;;;;5118710;27;20719;-87
2023/10/17 04:26:44;;;;;;;9.00;5.60;;;6.00;99.90;;;;;;5118918;27;20063;-89
2023/10/17 04:29:20;;;;;;;13.23;6.47;;;6.00;99.90;;;;;;5117634;27;20039;-86
2023/10/17 04:31:47;;;;;;;12.13;6.40;;;5.90;99.90;;;;;;5121634;27;20042;-85
2023/10/17 04:34:21;;;;;;;11.70;6.03;;;5.80;99.90;;;;;;5127269;27;20133;-85
2023/10/17 04:36:53;;;;;;;8.20;5.13;;;5.80;99.90;;;;;;5123773;27;20397;-86
2023/10/17 04:39:19;;;;;;;8.52;5.43;;;5.80;99.90;;;;;;5120169;27;20035;-86
2023/10/17 04:44:50;;;;;;;12.43;6.82;;;5.70;99.90;;;;;;5128596;27;20088;-88
2023/10/17 04:49:53;;;;;;;7.82;4.50;;;5.60;99.90;;;;;;5126822;27;20046;-85
2023/10/17 04:52:29;;;;;;;9.45;5.50;;;5.60;99.90;;;;;;5125310;27;20208;-86
2023/10/17 04:55:08;;;;;;;13.05;7.03;;;5.60;99.90;;;;;;5122201;27;20042;-86
2023/10/17 05:03:14;;;;;;;9.07;6.25;;;5.50;99.90;;;;;;5127130;27;20343;-86
2023/10/17 05:06:00;;;;;;;13.55;6.20;;;5.50;99.90;;;;;;5099110;27;20063;-86
2023/10/17 05:08:49;;;;;;;8.10;5.43;;;5.40;99.90;;;;;;5116458;27;20023;-88
2023/10/17 06:17:21;;;;;;;7.60;4.10;;;5.30;99.90;;;;;;5128507;27;20037;-86
2023/10/17 06:19:52;;;;;;;5.40;3.75;;;5.20;99.90;;;;;;5136557;27;20479;-89
2023/10/17 06:35:52;;;;;;;5.28;3.83;;;5.40;99.90;;;;;;5123754;27;20129;-86
2023/10/17 06:38:27;;;;;;;4.07;3.22;;;5.40;99.90;;;;;;5119995;27;20713;-86
2023/10/17 06:41:11;;;;;;;5.72;3.75;;;5.40;99.90;;;;;;5126044;27;20031;-89
2023/10/17 06:43:40;;;;;;;4.88;3.40;;;5.40;99.90;;;;;;5139687;27;20023;-86
2023/10/17 06:46:12;;;;;;;6.25;3.42;;;5.40;99.90;;;;;;5130508;27;20060;-86
2023/10/17 06:48:48;;;;;;;5.63;3.47;;;5.40;99.90;;;;;;5125937;27;20098;-86
2023/10/17 06:53:40;;;;;;;5.35;3.50;;;5.40;99.90;;;;;;5113617;27;20029;-86
2023/10/17 06:56:09;;;;;;;7.75;4.45;;;5.50;99.90;;;;;;5106562;27;20023;-88
2023/10/17 06:58:36;;;;;;;4.88;3.47;;;5.50;99.90;;;;;;5126973;27;20024;-86
2023/10/17 07:01:04;;;;;;;5.15;3.65;;;5.50;99.90;;;;;;5127888;27;20390;-86
2023/10/17 07:03:34;;;;;;;4.82;4.00;;;5.50;99.90;;;;;;5119416;27;20119;-86
2023/10/17 07:06:16;;;;;;;7.00;4.38;;;5.60;99.90;;;;;;5125276;27;20097;-86
2023/10/17 07:08:42;;;;;;;5.63;4.55;;;5.60;99.90;;;;;;5128852;27;20031;-86
2023/10/17 07:11:26;;;;;;;6.63;4.70;;;5.60;99.90;;;;;;5097686;27;20046;-87
2023/10/17 07:16:34;;;;;;;6.10;4.15;;;5.60;99.90;;;;;;5134147;27;20359;-87
2023/10/17 07:24:28;;;;;;;15.80;5.18;;;5.80;99.90;;;;;;5123164;27;20020;-87
2023/10/17 07:26:55;;;;;;;10.30;4.47;;;5.80;99.90;;;;;;5122490;27;20184;-86
2023/10/17 07:29:22;;;;;;;5.10;3.60;;;5.90;99.90;;;;;;5133512;27;20019;-86
2023/10/17 07:31:53;;;;;;;9.18;4.45;;;6.00;99.90;;;;;;5113205;27;20038;-88
2023/10/17 07:34:23;;;;;;;11.02;4.10;;;6.10;99.90;;;;;;5135558;27;20050;-86
2023/10/17 07:37:39;;;;;;;8.77;6.10;;;6.20;99.90;;;;;;5126518;27;20055;-86
2023/10/17 07:39:39;;;;;;;7.07;5.20;;;6.30;99.90;;;;;;5117184;27;20160;-86
2023/10/17 07:42:14;;;;;;;12.00;6.15;;;6.30;99.90;;;;;;5137215;27;20147;-87
2023/10/17 07:44:43;;;;;;;13.60;6.45;;;6.40;99.90;;;;;;5123921;27;20027;-86
2023/10/17 07:47:09;;;;;;;9.85;6.65;;;6.50;99.90;;;;;;5119237;27;20406;-89
2023/10/17 07:49:43;;;;;;;9.60;5.35;;;6.50;99.90;;;;;;5127276;27;20031;-86
2023/10/17 07:52:12;;;;;;;11.18;6.95;;;6.60;99.90;;;;;;5117772;27;20027;-89
2023/10/17 07:57:28;;;;;;;19.58;8.30;;;6.70;99.90;;;;;;5088672;27;20035;-88
2023/10/17 07:59:57;;;;;;;19.15;8.07;;;6.80;99.90;;;;;;5115651;27;20034;-88
2023/10/17 08:02:23;;;;;;;11.90;6.43;;;6.80;99.90;;;;;;5125222;27;20108;-87
2023/10/17 08:04:51;;;;;;;10.65;6.93;;;6.90;99.90;;;;;;5115356;27;20035;-86
2023/10/17 08:07:20;;;;;;;11.23;6.53;;;7.00;99.90;;;;;;5115882;27;20157;-86
2023/10/17 08:09:56;;;;;;;10.10;6.25;;;7.00;99.90;;;;;;5116761;27;20035;-88
2023/10/17 08:12:25;;;;;;;17.75;8.65;;;7.10;99.90;;;;;;5119232;27;20739;-86
2023/10/17 08:15:19;;;;;;;12.40;6.80;;;7.20;99.90;;;;;;5119158;27;20040;-86
2023/10/17 08:17:44;;;;;;;15.55;9.38;;;7.20;99.90;;;;;;5133786;27;20356;-88
2023/10/17 08:22:55;;;;;;;14.13;7.75;;;7.30;99.90;;;;;;5135876;27;20015;-86
2023/10/17 08:25:32;;;;;;;13.82;8.43;;;7.40;99.90;;;;;;5137815;27;20027;-87
2023/10/17 08:27:58;;;;;;;20.55;9.18;;;7.40;99.90;;;;;;5133624;27;20418;-87
2023/10/17 08:30:25;;;;;;;17.08;8.55;;;7.50;99.90;;;;;;5134056;27;20040;-86
2023/10/17 08:35:37;;;;;;;17.38;9.50;;;7.60;99.90;;;;;;5139615;27;20037;-86
2023/10/17 08:38:06;;;;;;;17.00;10.13;;;7.60;99.90;;;;;;5129697;27;20471;-87
2023/10/17 08:40:32;;;;;;;22.45;10.93;;;7.70;99.90;;;;;;5118277;27;20034;-87
2023/10/17 08:43:16;;;;;;;29.45;13.63;;;7.70;99.90;;;;;;5132589;27;20673;-87
2023/10/17 08:45:47;;;;;;;22.30;11.88;;;7.80;99.90;;;;;;5126507;27;20039;-87
2023/10/17 08:48:14;;;;;;;22.10;10.55;;;7.80;99.90;;;;;;5130979;27;20505;-88
2023/10/17 08:50:39;;;;;;;24.75;11.80;;;7.80;99.90;;;;;;5130689;27;20847;-87
2023/10/17 08:53:21;;;;;;;21.48;11.18;;;7.80;99.90;;;;;;5127349;27;20517;-87
2023/10/17 08:55:51;;;;;;;47.60;14.55;;;7.90;99.90;;;;;;5137839;27;20479;-86
2023/10/17 08:58:17;;;;;;;25.25;13.00;;;7.90;99.90;;;;;;5125589;27;20015;-88
2023/10/17 09:03:35;;;;;;;30.38;16.13;;;8.00;99.90;;;;;;5131186;27;20018;-85
2023/10/17 09:11:29;;;;;;;38.17;18.67;;;7.90;99.90;;;;;;5129541;27;20454;-88
2023/10/17 09:16:49;;;;;;;32.30;18.63;;;8.00;99.90;;;;;;5123408;27;20132;-87
2023/10/17 09:19:14;;;;;;;32.90;20.35;;;7.90;99.90;;;;;;5132433;27;20023;-87
2023/10/17 09:21:47;;;;;;;27.60;17.30;;;8.00;99.90;;;;;;5121382;27;20084;-87
2023/10/17 09:24:35;;;;;;;30.75;17.40;;;8.00;99.90;;;;;;5118160;27;20027;-87
2023/10/17 09:27:14;;;;;;;21.75;14.15;;;8.10;99.90;;;;;;5129105;27;20498;-86
2023/10/17 09:29:55;;;;;;;21.63;13.02;;;8.10;99.90;;;;;;5128286;27;20023;-87
2023/10/17 09:32:38;;;;;;;29.92;15.20;;;8.10;99.90;;;;;;5127318;27;20031;-87
2023/10/17 09:35:10;;;;;;;25.17;13.32;;;8.10;99.90;;;;;;5132312;27;20034;-86
2023/10/17 09:37:37;;;;;;;23.00;14.00;;;8.20;99.90;;;;;;5119591;27;20031;-88
2023/10/17 09:40:12;;;;;;;23.65;13.30;;;8.20;99.90;;;;;;5136187;27;20055;-88
2023/10/17 09:42:46;;;;;;;22.25;12.50;;;8.20;99.90;;;;;;5118807;27;20027;-86
2023/10/17 09:45:13;;;;;;;22.48;13.15;;;8.20;99.90;;;;;;5129630;27;20446;-86
2023/10/17 09:47:47;;;;;;;21.63;13.02;;;8.20;99.90;;;;;;5121061;27;20118;-86
2023/10/17 09:50:17;;;;;;;27.98;13.50;;;8.20;99.90;;;;;;5130841;27;20483;-88
2023/10/17 09:52:48;;;;;;;23.38;13.98;;;8.30;99.90;;;;;;5123259;27;20064;-87
2023/10/17 09:55:17;;;;;;;23.02;13.65;;;8.30;99.90;;;;;;5143892;27;20102;-87
2023/10/17 09:58:08;;;;;;;31.17;15.10;;;8.30;99.90;;;;;;5132260;27;20391;-87
2023/10/17 10:00:46;;;;;;;25.83;14.15;;;8.30;99.90;;;;;;5123646;27;20034;-89
2023/10/17 10:03:14;;;;;;;25.95;14.90;;;8.40;99.90;;;;;;5120337;27;20023;-86
2023/10/17 10:05:43;;;;;;;22.05;13.40;;;8.50;99.90;;;;;;5128820;27;20046;-86
2023/10/17 10:08:32;;;;;;;19.92;11.63;;;8.50;99.90;;;;;;5117622;27;20027;-89
2023/10/17 10:10:58;;;;;;;22.48;13.38;;;8.50;99.90;;;;;;5136448;27;20057;-86
2023/10/17 10:13:24;;;;;;;17.50;10.30;;;8.60;99.90;;;;;;5127569;27;20058;-85
2023/10/17 10:15:51;;;;;;;20.00;12.07;;;8.50;99.90;;;;;;5137854;27;20041;-86
2023/10/17 10:18:41;;;;;;;18.08;11.60;;;8.50;99.90;;;;;;5130913;27;20030;-86
2023/10/17 10:21:13;;;;;;;17.67;11.10;;;8.60;99.90;;;;;;5123521;27;20018;-86
2023/10/17 10:23:45;;;;;;;20.27;12.02;;;8.60;99.90;;;;;;5120413;27;20030;-88
2023/10/17 10:26:19;;;;;;;20.20;12.35;;;8.60;99.90;;;;;;5130529;27;20048;-87
2023/10/17 10:28:48;;;;;;;26.58;15.90;;;8.70;99.90;;;;;;5144854;27;20110;-87
2023/10/17 10:31:24;;;;;;;31.67;17.92;;;8.80;99.90;;;;;;5133570;27;20411;-88
2023/10/17 10:33:52;;;;;;;24.80;14.48;;;8.70;99.90;;;;;;5111075;27;20059;-86
2023/10/17 10:36:22;;;;;;;27.67;16.65;;;8.80;99.90;;;;;;5132687;27;20081;-87
2023/10/17 10:38:47;;;;;;;27.27;15.38;;;8.80;99.90;;;;;;5122002;27;20026;-87
2023/10/17 10:41:15;;;;;;;22.17;14.55;;;8.80;99.90;;;;;;5127045;27;20483;-89
2023/10/17 10:43:41;;;;;;;25.63;14.75;;;8.90;99.90;;;;;;5124198;27;20483;-86
2023/10/17 10:46:08;;;;;;;19.88;13.27;;;8.90;99.90;;;;;;5113959;27;20496;-86
2023/10/17 10:48:34;;;;;;;28.40;17.83;;;8.90;99.90;;;;;;5128284;27;20037;-87
2023/10/17 10:51:00;;;;;;;26.35;16.98;;;8.90;99.90;;;;;;5114501;27;20019;-87
2023/10/17 10:53:33;;;;;;;25.88;15.40;;;9.00;99.90;;;;;;5117798;27;20050;-89
2023/10/17 10:56:13;;;;;;;17.25;11.93;;;9.00;99.90;;;;;;5121713;27;20026;-86
2023/10/17 10:59:02;;;;;;;27.63;14.90;;;9.00;99.90;;;;;;5111531;27;20066;-87
2023/10/17 11:01:27;;;;;;;25.75;12.68;;;9.10;99.90;;;;;;5110073;27;20055;-87
2023/10/17 11:03:53;;;;;;;16.88;10.75;;;9.10;99.90;;;;;;5136878;27;20059;-86
2023/10/17 11:06:24;;;;;;;17.02;11.70;;;9.10;99.90;;;;;;5123565;27;20062;-88
2023/10/17 11:08:54;;;;;;;22.48;13.57;;;9.10;99.90;;;;;;5123255;27;20163;-89
2023/10/17 11:11:19;;;;;;;28.65;15.38;;;9.10;99.90;;;;;;5117024;27;20030;-89
2023/10/17 11:13:57;;;;;;;23.25;14.32;;;9.20;99.90;;;;;;5114968;27;20053;-87
2023/10/17 11:16:25;;;;;;;23.08;12.13;;;9.20;99.90;;;;;;5129131;27;20019;-86
2023/10/17 11:18:51;;;;;;;24.42;15.73;;;9.30;99.90;;;;;;5119617;27;20024;-88
2023/10/17 11:21:21;;;;;;;23.55;15.57;;;9.20;99.90;;;;;;5108267;27;20037;-87
2023/10/17 11:24:04;;;;;;;21.38;14.07;;;9.30;99.90;;;;;;5131392;27;20026;-88
2023/10/17 11:26:34;;;;;;;21.67;13.20;;;9.40;99.90;;;;;;5119390;27;20137;-87
2023/10/17 11:29:03;;;;;;;21.02;13.43;;;9.40;99.90;;;;;;5123371;27;20756;-87
2023/10/17 11:31:34;;;;;;;19.88;11.75;;;9.40;99.90;;;;;;5124883;27;20064;-88
2023/10/17 11:34:14;;;;;;;16.67;11.38;;;9.50;99.90;;;;;;5129603;27;20054;-87
2023/10/17 11:36:47;;;;;;;15.45;11.02;;;9.50;99.90;;;;;;5118201;27;20270;-87
2023/10/17 11:39:16;;;;;;;27.92;16.38;;;9.50;99.90;;;;;;5120514;27;20612;-88
2023/10/17 11:41:55;;;;;;;26.35;15.65;;;9.50;99.90;;;;;;5117233;27;20472;-87
2023/10/17 11:44:25;;;;;;;36.92;16.92;;;9.60;99.90;;;;;;5121063;27;20124;-88
2023/10/17 11:47:05;;;;;;;23.80;16.60;;;9.70;99.90;;;;;;5106368;27;20296;-87
2023/10/17 11:49:49;;;;;;;31.30;18.38;;;9.70;99.90;;;;;;5116673;27;20023;-87
2023/10/17 11:52:15;;;;;;;28.75;17.75;;;9.70;99.90;;;;;;5115297;27;20034;-88
2023/10/17 11:55:11;;;;;;;25.92;15.60;;;9.80;99.90;;;;;;5091011;27;20468;-87
2023/10/17 11:57:37;;;;;;;26.63;15.68;;;9.80;99.90;;;;;;5117346;27;20423;-89
2023/10/17 12:00:26;;;;;;;28.63;18.58;;;9.80;99.90;;;;;;5131560;27;20028;-91
2023/10/17 12:02:52;;;;;;;26.73;17.00;;;9.70;99.90;;;;;;5123028;27;20034;-87
2023/10/17 12:05:18;;;;;;;27.73;18.35;;;9.80;99.90;;;;;;5137528;27;20027;-88
2023/10/17 12:07:53;;;;;;;29.23;15.68;;;9.70;99.90;;;;;;5133671;27;20102;-87
2023/10/17 12:10:20;;;;;;;23.20;14.63;;;9.70;99.90;;;;;;5130637;27;20640;-87
2023/10/17 12:12:47;;;;;;;29.27;17.38;;;9.70;99.90;;;;;;5124570;27;20507;-87
2023/10/17 12:15:20;;;;;;;24.27;15.40;;;9.70;99.90;;;;;;5123519;27;20512;-87
2023/10/17 12:17:49;;;;;;;25.58;15.68;;;9.70;99.90;;;;;;5137365;27;20038;-87
2023/10/17 12:21:01;;;;;;;20.13;13.23;;;9.70;99.90;;;;;;5122004;27;20019;-87
2023/10/17 12:23:04;;;;;;;26.83;15.45;;;9.70;99.90;;;;;;5122793;27;20055;-88
2023/10/17 12:25:32;;;;;;;20.30;12.48;;;9.60;99.90;;;;;;5117591;28;20081;-86
2023/10/17 12:27:58;;;;;;;25.80;14.57;;;9.70;99.90;;;;;;5097187;28;20027;-87
2023/10/17 12:30:27;;;;;;;25.88;15.25;;;9.70;99.90;;;;;;5124598;27;20030;-86
2023/10/17 12:32:55;;;;;;;28.48;15.77;;;9.70;99.90;;;;;;5128617;27;20051;-88
2023/10/17 12:35:21;;;;;;;31.77;19.35;;;9.70;99.90;;;;;;5115626;27;20019;-88
2023/10/17 12:37:50;;;;;;;25.70;15.98;;;9.70;99.90;;;;;;5118427;27;20080;-86
2023/10/17 12:40:22;;;;;;;31.67;15.35;;;9.70;99.90;;;;;;5123824;27;20383;-87
2023/10/17 12:42:49;;;;;;;27.67;16.55;;;9.70;99.90;;;;;;5140900;27;20414;-88
2023/10/17 12:45:15;;;;;;;25.20;14.98;;;9.80;99.90;;;;;;5137949;27;20035;-87
2023/10/17 12:47:43;;;;;;;33.00;16.65;;;9.80;99.90;;;;;;5124104;27;21724;-87
2023/10/17 12:50:11;;;;;;;27.23;15.05;;;9.80;99.90;;;;;;5121364;27;20239;-88
2023/10/17 12:52:37;;;;;;;21.13;13.82;;;9.80;99.90;;;;;;5119778;27;20107;-87
2023/10/17 12:55:04;;;;;;;23.85;13.30;;;9.80;99.90;;;;;;5134794;27;20059;-87
2023/10/17 12:57:30;;;;;;;22.55;13.85;;;9.80;99.90;;;;;;5121042;27;20032;-87
2023/10/17 12:59:59;;;;;;;32.53;15.77;;;9.80;99.90;;;;;;5121016;27;20038;-88
2023/10/17 13:02:25;;;;;;;22.83;13.20;;;9.90;99.90;;;;;;5112499;27;20078;-87
2023/10/17 13:04:50;;;;;;;22.42;12.73;;;9.90;99.90;;;;;;5126424;27;20022;-87
2023/10/17 13:07:16;;;;;;;30.13;15.23;;;9.90;99.90;;;;;;5133933;27;20118;-88
2023/10/17 13:09:41;;;;;;;23.63;13.85;;;9.90;99.90;;;;;;5133236;27;20471;-88
2023/10/17 13:12:07;;;;;;;25.02;14.30;;;9.90;99.90;;;;;;5135955;27;20115;-89
2023/10/17 13:14:32;;;;;;;23.88;14.68;;;9.90;99.90;;;;;;5130125;27;20028;-87
2023/10/17 13:16:58;;;;;;;24.77;13.65;;;9.90;99.90;;;;;;5129026;27;20023;-87
2023/10/17 13:19:24;;;;;;;26.92;15.50;;;9.90;99.90;;;;;;5135509;27;20407;-87
2023/10/17 13:21:49;;;;;;;24.83;15.35;;;9.90;99.90;;;;;;5133902;27;20050;-88
2023/10/17 13:24:15;;;;;;;24.17;13.77;;;9.90;99.90;;;;;;5126658;27;20163;-88
2023/10/17 13:26:41;;;;;;;17.13;10.32;;;9.90;99.90;;;;;;5132150;27;20035;-88
2023/10/17 13:29:08;;;;;;;20.02;10.13;;;9.90;99.90;;;;;;5134873;27;20038;-87
2023/10/17 13:31:34;;;;;;;16.17;9.40;;;9.90;99.90;;;;;;5124961;27;20371;-87
2023/10/17 13:33:59;;;;;;;19.48;10.48;;;10.00;99.90;;;;;;5140774;27;20047;-88
2023/10/17 13:36:25;;;;;;;16.77;10.27;;;9.90;99.90;;;;;;5135232;27;20027;-88
2023/10/17 13:38:50;;;;;;;23.60;12.50;;;9.90;99.90;;;;;;5119121;27;20441;-89
2023/10/17 13:41:16;;;;;;;17.80;10.32;;;9.90;99.90;;;;;;5131044;27;22441;-88
2023/10/17 13:43:43;;;;;;;18.02;11.18;;;10.00;99.90;;;;;;5128307;27;20415;-88
2023/10/17 13:46:14;;;;;;;19.42;11.32;;;9.90;99.90;;;;;;5136069;27;20492;-88
2023/10/17 13:48:49;;;;;;;22.50;12.63;;;9.90;99.90;;;;;;5126012;27;20031;-87
2023/10/17 13:51:16;;;;;;;19.77;12.35;;;9.90;99.90;;;;;;5107372;27;20033;-86
2023/10/17 13:53:44;;;;;;;19.80;11.45;;;10.00;99.90;;;;;;5125241;27;20127;-89
2023/10/17 13:56:21;;;;;;;23.25;12.50;;;10.00;99.90;;;;;;5133545;27;20024;-88
2023/10/17 13:58:49;;;;;;;25.10;13.55;;;10.00;99.90;;;;;;5126514;27;20023;-87
2023/10/17 14:01:33;;;;;;;22.73;12.40;;;10.10;99.90;;;;;;5127079;27;20034;-87
2023/10/17 14:04:02;;;;;;;19.27;12.32;;;10.10;99.90;;;;;;5132288;27;20040;-91
2023/10/17 14:06:34;;;;;;;23.27;12.32;;;10.30;99.90;;;;;;5130679;27;20031;-88
2023/10/17 14:09:00;;;;;;;19.23;12.27;;;10.50;99.90;;;;;;5130235;27;20475;-89
2023/10/17 14:11:26;;;;;;;17.17;10.52;;;10.60;99.90;;;;;;5117029;27;20023;-89
2023/10/17 14:13:54;;;;;;;21.25;11.50;;;10.70;99.90;;;;;;5120338;27;20038;-89
2023/10/17 14:16:22;;;;;;;13.60;8.23;;;10.70;99.90;;;;;;5125105;27;21418;-88
2023/10/17 14:18:52;;;;;;;19.10;9.52;;;10.60;99.90;;;;;;5127297;27;20151;-89
2023/10/17 14:21:34;;;;;;;15.68;9.63;;;10.60;99.90;;;;;;5125540;27;20031;-88
2023/10/17 14:27:12;;;;;;;16.30;9.00;;;10.40;99.90;;;;;;5122655;27;20074;-88
2023/10/17 14:29:41;;;;;;;17.05;9.68;;;10.40;99.90;;;;;;5102730;27;20379;-88
2023/10/17 14:32:07;;;;;;;17.25;10.02;;;10.40;99.90;;;;;;5130675;27;20031;-86
2023/10/17 14:34:35;;;;;;;22.30;10.75;;;10.30;99.90;;;;;;5128542;27;20031;-86
2023/10/17 14:37:01;;;;;;;19.02;9.98;;;10.40;99.90;;;;;;5104504;27;20042;-88
2023/10/17 14:39:29;;;;;;;14.43;10.48;;;10.40;99.90;;;;;;5129890;27;20101;-87
2023/10/17 14:41:55;;;;;;;16.20;9.90;;;10.40;99.90;;;;;;5118671;27;20015;-88
2023/10/17 14:44:22;;;;;;;15.75;10.52;;;10.40;99.90;;;;;;5111310;27;20390;-88
2023/10/17 14:46:47;;;;;;;16.70;11.10;;;10.40;99.90;;;;;;5131731;27;21296;-88
2023/10/17 14:49:13;;;;;;;17.50;11.77;;;10.40;99.90;;;;;;5130583;27;20027;-89
2023/10/17 14:51:42;;;;;;;15.65;9.07;;;10.50;99.90;;;;;;5127966;27;20019;-88
2023/10/17 14:54:09;;;;;;;17.92;10.43;;;10.70;99.90;;;;;;5128944;27;20050;-87
2023/10/17 14:56:36;;;;;;;15.55;9.48;;;10.70;99.90;;;;;;5135745;27;20051;-86
2023/10/17 14:59:01;;;;;;;17.02;9.85;;;10.70;99.90;;;;;;5123199;27;20033;-86
2023/10/17 15:01:27;;;;;;;18.13;10.73;;;10.60;99.90;;;;;;5127270;27;20027;-87
2023/10/17 15:03:54;;;;;;;22.35;11.88;;;10.50;99.90;;;;;;5129736;27;20027;-86
2023/10/17 15:06:20;;;;;;;14.57;9.70;;;10.40;99.90;;;;;;5125623;27;20066;-86
2023/10/17 15:08:46;;;;;;;15.25;8.93;;;10.30;99.90;;;;;;5136441;27;20066;-87
2023/10/17 15:11:11;;;;;;;14.70;7.82;;;10.20;99.90;;;;;;5114014;27;20099;-86
2023/10/17 15:13:38;;;;;;;13.10;7.88;;;10.10;99.90;;;;;;5132504;27;20025;-86
2023/10/17 15:16:18;;;;;;;16.15;8.65;;;10.00;99.90;;;;;;5131584;27;20020;-88
2023/10/17 15:18:45;;;;;;;18.27;7.43;;;9.90;99.90;;;;;;5130567;27;20034;-87
2023/10/17 15:21:15;;;;;;;12.85;7.38;;;9.80;99.90;;;;;;5117299;27;20592;-86
2023/10/17 15:23:53;;;;;;;10.20;6.85;;;9.80;99.90;;;;;;5112793;27;20031;-86
2023/10/17 15:26:24;;;;;;;11.27;6.70;;;9.70;99.90;;;;;;5121180;27;20039;-85
2023/10/17 15:28:50;;;;;;;13.25;7.22;;;9.60;99.90;;;;;;5126353;27;20023;-87